Time;durP1;ratioP1;P1;durP2;ratioP2;P2;SDS_P1;SDS_P2;PMS_P1;PMS_P2;Temp;Humidity;BMP_temperature;BMP_pressure;BME280_temperature;BME280_humidity;BME280_pressure;Samples;Min_cycle;Max_cycle;Signal;HPM_P1;HPM_P2
2023/05/25 18:29:30;;;;;;;24.70;5.05;;;11.40;63.50;;;;;;4877248;27;8048170;-91
2023/05/25 18:31:56;;;;;;;26.38;5.82;;;11.40;69.10;;;;;;5100311;27;20083;-89
2023/05/25 18:35:36;;;;;;;29.55;5.78;;;11.40;66.10;;;;;;5100896;27;20132;-91
2023/05/25 18:38:03;;;;;;;30.85;6.20;;;11.30;67.60;;;;;;5022902;28;20059;-92
2023/05/25 18:40:28;;;;;;;20.20;4.93;;;11.30;67.70;;;;;;5073432;28;20024;-91
2023/05/25 18:42:54;;;;;;;27.17;5.57;;;11.20;67.70;;;;;;5073335;28;20045;-92
2023/05/25 18:45:20;;;;;;;30.63;6.15;;;11.20;69.60;;;;;;5060954;28;20484;-90
2023/05/25 18:47:46;;;;;;;26.55;5.28;;;11.20;66.80;;;;;;5061511;28;20041;-91
2023/05/25 18:50:12;;;;;;;30.58;5.35;;;11.20;64.90;;;;;;5063546;28;20044;-91
2023/05/25 18:52:38;;;;;;;30.13;5.45;;;11.10;63.80;;;;;;5064499;28;20051;-90
2023/05/25 18:55:05;;;;;;;32.45;5.15;;;11.10;67.20;;;;;;5057774;28;20484;-92
2023/05/25 18:57:31;;;;;;;28.65;5.15;;;11.10;67.10;;;;;;5068310;28;20041;-92
2023/05/25 18:59:57;;;;;;;32.00;5.82;;;11.10;67.40;;;;;;5055404;28;20040;-90
2023/05/25 19:02:27;;;;;;;30.10;5.65;;;11.00;65.20;;;;;;5044759;28;20051;-93
2023/05/25 19:04:53;;;;;;;28.02;4.90;;;11.00;68.00;;;;;;5048127;28;20478;-92
2023/05/25 19:07:19;;;;;;;30.83;5.40;;;10.90;67.40;;;;;;5053857;28;20128;-91
2023/05/25 19:09:46;;;;;;;38.95;6.78;;;10.90;71.60;;;;;;5038098;28;20142;-92
2023/05/25 19:12:14;;;;;;;26.08;5.80;;;10.80;69.90;;;;;;5039209;28;20059;-92
2023/05/25 19:14:40;;;;;;;27.42;5.35;;;10.80;72.20;;;;;;5052003;28;20049;-90
2023/05/25 19:17:05;;;;;;;20.80;4.60;;;10.80;75.00;;;;;;5030920;28;20044;-92
2023/05/25 19:19:31;;;;;;;28.15;4.95;;;10.70;74.60;;;;;;5040951;28;20066;-91
2023/05/25 19:21:57;;;;;;;21.20;4.40;;;10.70;76.00;;;;;;5038271;28;20036;-92
2023/05/25 19:24:23;;;;;;;26.55;5.30;;;10.60;77.50;;;;;;5055251;28;20041;-91
2023/05/25 19:26:49;;;;;;;27.08;5.38;;;10.60;76.80;;;;;;5035745;28;20130;-91
2023/05/25 19:29:17;;;;;;;30.83;5.30;;;10.60;80.50;;;;;;5048808;28;20043;-90
2023/05/25 19:31:43;;;;;;;27.70;4.78;;;10.50;83.60;;;;;;5054462;28;20484;-91
2023/05/25 19:34:12;;;;;;;25.08;4.50;;;10.50;84.20;;;;;;5049085;28;20057;-91
2023/05/25 19:36:37;;;;;;;28.00;4.90;;;10.50;84.80;;;;;;5041846;28;20037;-90
2023/05/25 19:39:03;;;;;;;31.73;6.32;;;10.50;87.50;;;;;;5041028;28;20049;-89
2023/05/25 19:41:29;;;;;;;28.13;5.03;;;10.40;86.30;;;;;;5042801;28;20045;-91
2023/05/25 19:43:55;;;;;;;32.13;5.20;;;10.40;83.50;;;;;;5039660;28;20049;-91
2023/05/25 19:46:21;;;;;;;28.05;5.32;;;10.30;85.90;;;;;;5028351;28;20037;-91
2023/05/25 19:48:47;;;;;;;32.17;5.68;;;10.30;86.10;;;;;;5037506;28;20108;-93
2023/05/25 19:51:13;;;;;;;27.55;4.97;;;10.30;87.20;;;;;;5020499;28;20044;-90
2023/05/25 19:53:39;;;;;;;29.75;6.05;;;10.30;89.30;;;;;;5017979;28;20045;-92
2023/05/25 19:56:07;;;;;;;26.63;5.22;;;10.30;90.30;;;;;;5033047;28;20132;-93
2023/05/25 19:58:33;;;;;;;28.13;4.72;;;10.20;89.70;;;;;;5020345;28;20088;-92
2023/05/25 20:01:06;;;;;;;23.85;4.22;;;10.20;87.70;;;;;;5037245;28;20057;-93
2023/05/25 20:03:32;;;;;;;31.08;5.93;;;10.10;87.20;;;;;;5020444;28;20069;-92
2023/05/25 20:06:24;;;;;;;40.58;5.07;;;10.10;87.40;;;;;;5036341;28;20071;-93
2023/05/25 20:09:16;;;;;;;;;;;;;;;;;;;;;
2023/05/25 20:11:48;;;;;;;27.73;5.25;;;10.10;90.40;;;;;;5021524;28;20049;-91
2023/05/25 20:14:20;;;;;;;20.57;5.33;;;10.10;92.60;;;;;;5034091;28;20045;-92
2023/05/25 20:16:48;;;;;;;31.52;5.40;;;10.10;91.90;;;;;;5013000;28;20053;-93
2023/05/25 20:19:26;;;;;;;29.17;5.03;;;10.00;91.30;;;;;;5035920;28;20080;-93
2023/05/25 20:21:53;;;;;;;30.53;4.90;;;10.00;91.90;;;;;;5033064;28;20100;-93
2023/05/25 20:24:39;;;;;;;23.58;5.57;;;10.00;94.10;;;;;;5030006;28;20106;-92
2023/05/25 20:27:23;;;;;;;26.55;4.63;;;9.90;93.90;;;;;;5024559;28;20037;-92
2023/05/25 20:29:52;;;;;;;25.83;5.63;;;9.90;94.20;;;;;;5033539;28;20041;-92
2023/05/25 20:32:23;;;;;;;37.95;5.22;;;9.90;93.40;;;;;;5028752;28;20496;-90
2023/05/25 20:34:53;;;;;;;29.00;5.68;;;9.90;92.90;;;;;;5032710;28;20048;-93
2023/05/25 20:37:22;;;;;;;36.10;5.40;;;9.90;92.70;;;;;;5027386;28;20449;-91
2023/05/25 20:39:50;;;;;;;29.52;4.70;;;9.90;93.60;;;;;;5007244;28;20128;-92
2023/05/25 20:42:16;;;;;;;24.10;4.40;;;9.80;93.80;;;;;;5026033;28;20390;-91
2023/05/25 20:44:42;;;;;;;29.58;5.93;;;9.80;94.60;;;;;;5033114;28;20131;-92
2023/05/25 20:50:12;;;;;;;29.05;5.25;;;9.70;94.40;;;;;;5001979;23;20077;-64
2023/05/25 20:52:38;;;;;;;31.27;5.43;;;9.70;94.60;;;;;;4968385;28;20051;-64
2023/05/25 20:55:04;;;;;;;33.22;5.35;;;9.70;95.40;;;;;;4970872;28;20137;-64
2023/05/25 20:57:30;;;;;;;25.15;4.80;;;9.60;96.20;;;;;;4956544;28;20042;-63
2023/05/25 20:59:58;;;;;;;30.55;5.10;;;9.60;97.50;;;;;;4975155;28;20407;-64
2023/05/25 21:02:26;;;;;;;38.42;5.80;;;9.60;98.00;;;;;;4987741;28;20047;-64
2023/05/25 21:04:52;;;;;;;31.35;4.82;;;9.50;98.30;;;;;;4976358;28;20061;-64
2023/05/25 21:07:18;;;;;;;31.58;5.18;;;9.50;98.20;;;;;;4976554;28;20046;-64
2023/05/25 21:09:44;;;;;;;31.77;5.45;;;9.50;98.60;;;;;;4969933;28;20136;-64
2023/05/25 21:12:10;;;;;;;31.80;5.40;;;9.50;98.60;;;;;;4973866;28;20046;-65
2023/05/25 21:14:36;;;;;;;30.27;5.15;;;9.50;99.50;;;;;;4973301;28;20375;-65
2023/05/25 21:17:01;;;;;;;26.40;4.78;;;9.50;99.90;;;;;;4972429;28;20046;-65
2023/05/25 21:19:27;;;;;;;27.15;4.63;;;9.50;99.90;;;;;;4975389;28;20078;-65
2023/05/25 21:21:53;;;;;;;34.40;5.25;;;9.50;99.90;;;;;;4979270;28;20118;-64
2023/05/25 21:24:19;;;;;;;26.67;5.28;;;9.50;99.90;;;;;;4970680;28;20515;-64
2023/05/25 21:26:45;;;;;;;23.98;4.93;;;9.50;99.90;;;;;;4975305;28;20118;-63
2023/05/25 21:29:10;;;;;;;26.40;5.60;;;9.40;99.90;;;;;;4973891;28;20850;-64
2023/05/25 21:31:36;;;;;;;32.78;5.82;;;9.50;99.90;;;;;;4974066;28;20433;-64
2023/05/25 21:34:02;;;;;;;23.55;4.07;;;9.40;99.90;;;;;;4977062;28;20091;-64
2023/05/25 21:36:28;;;;;;;26.20;5.18;;;9.40;99.90;;;;;;4978697;28;20078;-64
2023/05/25 21:38:53;;;;;;;37.28;5.32;;;9.40;99.90;;;;;;4969048;28;20054;-64
2023/05/25 21:41:19;;;;;;;29.60;5.55;;;9.40;99.90;;;;;;4972051;28;20047;-64
2023/05/25 21:43:45;;;;;;;32.05;6.20;;;9.40;99.90;;;;;;4969020;28;20035;-64
2023/05/25 21:46:11;;;;;;;28.17;5.35;;;9.40;99.90;;;;;;4969326;28;20066;-63
2023/05/25 21:48:36;;;;;;;30.58;5.05;;;9.40;99.90;;;;;;4968037;28;20044;-65
2023/05/25 21:51:02;;;;;;;33.72;5.13;;;9.40;99.90;;;;;;4968673;28;20046;-64
2023/05/25 21:53:28;;;;;;;28.42;5.00;;;9.40;99.90;;;;;;4967365;28;20043;-64
2023/05/25 21:55:54;;;;;;;21.30;4.60;;;9.40;99.90;;;;;;4969190;28;20149;-64
2023/05/25 21:58:19;;;;;;;31.20;6.68;;;9.40;99.90;;;;;;4966518;28;20047;-64
2023/05/25 22:00:46;;;;;;;24.15;5.28;;;9.30;99.90;;;;;;4971703;28;20378;-64
2023/05/25 22:03:12;;;;;;;33.70;6.68;;;9.20;99.90;;;;;;4969261;28;20424;-63
2023/05/25 22:05:37;;;;;;;41.17;5.70;;;9.20;99.90;;;;;;4967984;28;20048;-64
2023/05/25 22:08:03;;;;;;;31.77;5.15;;;9.20;99.90;;;;;;4967411;28;20042;-64
2023/05/25 22:10:30;;;;;;;33.85;5.47;;;9.20;99.90;;;;;;4967585;28;20070;-63
2023/05/25 22:12:56;;;;;;;26.75;5.57;;;9.20;99.90;;;;;;4969391;28;20053;-64
2023/05/25 22:15:24;;;;;;;37.78;5.20;;;9.20;99.90;;;;;;4968527;28;20105;-64
2023/05/25 22:17:50;;;;;;;30.00;5.03;;;9.20;99.90;;;;;;4967799;28;20098;-64
2023/05/25 22:20:17;;;;;;;36.40;5.50;;;9.20;99.90;;;;;;4968244;28;20043;-64
2023/05/25 22:22:43;;;;;;;27.90;4.55;;;9.20;99.90;;;;;;4968124;28;20122;-64
2023/05/25 22:25:10;;;;;;;23.40;4.60;;;9.20;99.90;;;;;;4975604;28;20117;-64
2023/05/25 22:27:36;;;;;;;33.30;5.15;;;9.20;99.90;;;;;;4973341;28;20506;-63
2023/05/25 22:30:03;;;;;;;29.88;4.95;;;9.20;99.90;;;;;;4968981;28;20118;-64
2023/05/25 22:32:28;;;;;;;26.35;4.47;;;9.20;99.90;;;;;;4966768;28;20125;-64
2023/05/25 22:34:54;;;;;;;26.75;4.72;;;9.20;99.90;;;;;;4954814;28;20133;-64
2023/05/25 22:37:20;;;;;;;32.67;5.13;;;9.20;99.90;;;;;;4973962;28;20039;-64
2023/05/25 22:39:46;;;;;;;33.67;5.40;;;9.20;99.90;;;;;;4982010;28;20050;-64
2023/05/25 22:42:11;;;;;;;26.83;5.15;;;9.20;99.90;;;;;;4975999;28;20041;-64
2023/05/25 22:44:37;;;;;;;23.85;4.20;;;9.20;99.90;;;;;;4968760;28;20104;-64
2023/05/25 22:47:05;;;;;;;36.22;5.65;;;9.20;99.90;;;;;;4983286;28;20396;-64
2023/05/25 22:49:32;;;;;;;26.63;4.53;;;9.20;99.90;;;;;;4966594;28;20066;-63
2023/05/25 22:51:58;;;;;;;30.80;5.43;;;9.20;99.90;;;;;;4967384;28;20461;-64
2023/05/25 22:54:24;;;;;;;24.55;4.53;;;9.10;99.90;;;;;;4967273;28;20125;-64
2023/05/25 22:56:50;;;;;;;32.63;5.68;;;9.10;99.90;;;;;;4968628;28;20574;-64
2023/05/25 22:59:16;;;;;;;26.10;4.75;;;9.10;99.90;;;;;;4967485;28;20047;-64
2023/05/25 23:01:41;;;;;;;31.95;4.78;;;9.10;99.90;;;;;;4967483;28;20035;-64
2023/05/25 23:04:07;;;;;;;28.40;5.32;;;9.10;99.90;;;;;;4987574;28;20042;-64
2023/05/25 23:06:35;;;;;;;32.35;4.90;;;9.10;99.90;;;;;;4965332;28;20050;-64
2023/05/25 23:09:01;;;;;;;30.05;5.93;;;9.10;99.90;;;;;;4968164;28;20123;-65
2023/05/25 23:11:27;;;;;;;31.13;6.20;;;9.10;99.90;;;;;;4965473;28;20046;-64
2023/05/25 23:13:53;;;;;;;33.67;5.55;;;9.00;99.90;;;;;;4974129;28;20050;-64
2023/05/25 23:16:20;;;;;;;31.02;5.65;;;9.10;99.90;;;;;;4968005;28;20038;-64
2023/05/25 23:18:46;;;;;;;30.88;5.03;;;9.10;99.90;;;;;;4968303;28;20064;-64
2023/05/25 23:21:12;;;;;;;30.38;5.88;;;9.10;99.90;;;;;;4968881;28;20134;-64
2023/05/25 23:23:38;;;;;;;34.22;5.95;;;9.00;99.90;;;;;;4970228;28;20054;-64
2023/05/25 23:26:04;;;;;;;29.38;5.05;;;9.00;99.90;;;;;;4975312;28;20046;-64
2023/05/25 23:28:30;;;;;;;36.13;6.07;;;9.00;99.90;;;;;;4985213;28;20054;-63
2023/05/25 23:30:56;;;;;;;30.92;5.72;;;9.00;99.90;;;;;;4970690;28;20516;-65
2023/05/25 23:33:22;;;;;;;23.58;5.20;;;9.00;99.90;;;;;;4969490;28;20508;-64
2023/05/25 23:35:47;;;;;;;27.98;4.95;;;9.00;99.90;;;;;;4973224;28;20047;-63
2023/05/25 23:38:14;;;;;;;37.15;6.50;;;9.00;99.90;;;;;;4969670;28;20441;-63
2023/05/25 23:40:40;;;;;;;29.45;5.22;;;9.00;99.90;;;;;;4971082;28;20483;-63
2023/05/25 23:43:05;;;;;;;30.27;5.35;;;9.00;99.90;;;;;;5002909;28;20046;-63
2023/05/25 23:45:31;;;;;;;44.72;7.18;;;9.00;99.90;;;;;;4971325;28;20062;-63
2023/05/25 23:47:57;;;;;;;36.25;5.78;;;9.00;99.90;;;;;;4972043;28;20543;-63
2023/05/25 23:50:23;;;;;;;44.35;6.13;;;9.00;99.90;;;;;;4969428;28;20055;-63
2023/05/25 23:52:48;;;;;;;36.65;5.88;;;9.00;99.90;;;;;;4971690;28;20051;-64
2023/05/25 23:55:14;;;;;;;31.65;4.45;;;9.00;99.90;;;;;;5000937;28;20125;-64
2023/05/25 23:57:40;;;;;;;26.77;5.45;;;9.00;99.90;;;;;;4979709;28;20086;-64
